Time;durP1;ratioP1;P1;durP2;ratioP2;P2;SDS_P1;SDS_P2;PMS_P1;PMS_P2;Temp;Humidity;BMP_temperature;BMP_pressure;BME280_temperature;BME280_humidity;BME280_pressure;Samples;Min_cycle;Max_cycle;Signal;HPM_P1;HPM_P2
2022/03/05 00:25:29;;;;;;;6.60;2.40;;;0.90;92.10;;;;;;6322856;22;20030;-86
2022/03/05 00:31:33;;;;;;;8.97;2.47;;;0.80;92.10;;;;;;6199369;23;20005;-87
2022/03/05 00:33:58;;;;;;;9.83;2.97;;;0.80;92.20;;;;;;6336320;22;20436;-87
2022/03/05 08:06:09;;;;;;;16.75;4.82;;;1.80;99.90;;;;;;6340652;22;20030;-91
2022/03/05 08:09:17;;;;;;;15.83;5.23;;;1.90;99.90;;;;;;6323171;22;20085;-92
2022/03/05 08:11:57;;;;;;;15.73;6.13;;;1.90;99.90;;;;;;6337692;22;20003;-92
2022/03/05 08:15:12;;;;;;;16.60;5.97;;;2.10;99.90;;;;;;6342712;22;19999;-92
2022/03/05 08:18:13;;;;;;;11.90;5.37;;;2.10;99.90;;;;;;6339465;22;20036;-93
2022/03/05 08:21:44;;;;;;;;;;;;;;;;;;;;;
2022/03/05 08:28:30;;;;;;;;;;;;;;;;;;;;;
2022/03/05 08:31:14;;;;;;;;;;;;;;;;;;;;;
2022/03/05 08:33:52;;;;;;;14.43;5.00;;;2.50;99.90;;;;;;6308963;22;20034;-93
2022/03/05 08:43:02;;;;;;;;;;;;;;;;;;;;;
2022/03/05 08:45:44;;;;;;;16.00;5.33;;;2.80;99.90;;;;;;6281238;22;20042;-93
2022/03/05 08:48:15;;;;;;;12.93;5.00;;;2.80;99.90;;;;;;6255921;22;20003;-92
2022/03/05 08:51:16;;;;;;;15.77;4.93;;;2.90;99.90;;;;;;6279984;22;20012;-93
2022/03/05 08:54:27;;;;;;;;;;;;;;;;;;;;;
2022/03/05 08:57:12;;;;;;;16.33;5.17;;;3.20;99.90;;;;;;6284539;22;20023;-93
2022/03/05 09:00:29;;;;;;;14.73;5.67;;;3.20;99.90;;;;;;6279572;22;20050;-92
2022/03/05 09:06:44;;;;;;;10.17;4.57;;;3.40;99.90;;;;;;6286254;22;20007;-92
2022/03/05 09:09:19;;;;;;;10.27;4.80;;;3.50;99.80;;;;;;6284071;22;20003;-93
2022/03/05 09:12:00;;;;;;;13.30;4.90;;;3.50;99.60;;;;;;6278877;22;20003;-93
2022/03/05 09:14:34;;;;;;;11.83;4.63;;;3.60;99.90;;;;;;6280392;22;20539;-93
2022/03/05 09:17:19;;;;;;;11.87;4.43;;;3.50;99.10;;;;;;6279941;22;20026;-92
2022/03/05 09:20:22;;;;;;;13.80;4.97;;;3.50;99.10;;;;;;6278393;22;20004;-93
2022/03/05 09:23:01;;;;;;;11.88;5.25;;;3.50;99.50;;;;;;6274157;22;20023;-93
2022/03/05 09:30:02;;;;;;;11.63;4.30;;;3.50;99.40;;;;;;6158527;23;20020;-92
2022/03/05 09:35:59;;;;;;;;;;;;;;;;;;;;;
2022/03/05 09:41:48;;;;;;;13.20;4.80;;;3.90;98.30;;;;;;6188994;23;20529;-90
2022/03/05 09:44:14;;;;;;;12.23;4.77;;;4.00;97.80;;;;;;6216097;22;20008;-90
2022/03/05 09:46:56;;;;;;;13.97;4.40;;;4.00;97.30;;;;;;6274481;22;20095;-93
2022/03/05 09:50:07;;;;;;;;;;;;;;;;;;;;;
2022/03/05 09:52:36;;;;;;;9.23;3.80;;;4.10;96.80;;;;;;6160278;22;20029;-92
2022/03/05 09:55:36;;;;;;;9.63;3.97;;;4.20;96.20;;;;;;6277366;22;20003;-92
2022/03/05 10:03:55;;;;;;;9.30;3.70;;;4.50;95.50;;;;;;6262098;22;20003;-89
2022/03/05 10:06:23;;;;;;;9.33;3.77;;;4.60;94.40;;;;;;6271013;22;19995;-89
2022/03/05 10:08:51;;;;;;;9.63;3.90;;;4.70;94.10;;;;;;6271228;22;20008;-90
2022/03/05 10:11:21;;;;;;;7.27;3.40;;;4.70;93.90;;;;;;6267438;22;20014;-90
2022/03/05 10:13:47;;;;;;;9.60;3.53;;;4.80;93.70;;;;;;6268977;22;20043;-89
2022/03/05 10:16:33;;;;;;;11.77;4.60;;;4.80;93.70;;;;;;6271465;22;20548;-90
2022/03/05 10:19:18;;;;;;;12.40;3.97;;;4.80;93.70;;;;;;6273014;22;20003;-89
2022/03/05 10:22:03;;;;;;;7.73;3.30;;;4.90;93.30;;;;;;6272253;22;20045;-90
2022/03/05 10:24:55;;;;;;;8.27;3.43;;;4.90;92.70;;;;;;6272451;22;19999;-90
2022/03/05 10:27:21;;;;;;;10.97;3.57;;;4.90;92.40;;;;;;6272111;22;20007;-90
2022/03/05 10:29:46;;;;;;;8.57;3.60;;;5.10;92.70;;;;;;6272600;22;20000;-90
2022/03/05 10:32:18;;;;;;;10.63;3.63;;;5.20;91.80;;;;;;6274299;22;20004;-90
2022/03/05 10:35:15;;;;;;;9.20;2.87;;;5.20;91.80;;;;;;6273632;22;20329;-93
2022/03/05 10:38:34;;;;;;;;;;;;;;;;;;;;;
2022/03/05 10:41:40;;;;;;;7.00;2.60;;;5.50;91.20;;;;;;6277470;22;20571;-92
2022/03/05 10:45:22;;;;;;;;;;;;;;;;;;;;;
2022/03/05 10:48:54;;;;;;;;;;;;;;;;;;;;;
2022/03/05 11:13:43;;;;;;;9.57;2.73;;;5.80;84.60;;;;;;6221277;22;20012;-90
2022/03/05 11:16:21;;;;;;;6.57;2.70;;;5.70;84.80;;;;;;6280130;22;20003;-90
2022/03/05 11:19:35;;;;;;;;;;;;;;;;;;;;;
2022/03/05 11:22:41;;;;;;;8.73;2.90;;;5.70;84.90;;;;;;6283256;22;20027;-92
2022/03/05 11:33:06;;;;;;;6.27;2.37;;;5.80;81.70;;;;;;6190647;23;20028;-91
2022/03/05 11:35:58;;;;;;;;;;;;;;;;;;;;;
2022/03/05 11:39:04;;;;;;;5.78;2.67;;;6.10;81.90;;;;;;6170512;23;20454;-91
2022/03/05 11:45:36;;;;;;;7.60;2.90;;;6.40;81.20;;;;;;6130681;23;20001;-90
2022/03/05 11:51:55;;;;;;;5.70;2.50;;;6.50;78.40;;;;;;6288712;22;20003;-92
2022/03/05 11:55:04;;;;;;;6.17;2.80;;;6.60;79.50;;;;;;6287078;22;20226;-91
2022/03/05 11:58:21;;;;;;;7.70;3.03;;;6.60;77.90;;;;;;6294390;22;20031;-90
2022/03/05 12:01:21;;;;;;;;;;;;;;;;;;;;;
2022/03/05 12:04:23;;;;;;;6.27;2.47;;;6.70;78.90;;;;;;6285219;22;20030;-90
2022/03/05 12:07:32;;;;;;;4.07;2.07;;;6.80;77.70;;;;;;6253469;22;20011;-92
2022/03/05 12:10:42;;;;;;;6.67;2.80;;;6.80;77.50;;;;;;6277692;22;20490;-91
2022/03/05 12:13:41;;;;;;;6.00;2.73;;;7.00;77.40;;;;;;6283609;22;20011;-91
2022/03/05 12:16:44;;;;;;;7.27;2.80;;;7.10;76.60;;;;;;6277510;22;20106;-91
2022/03/05 12:22:39;;;;;;;8.67;3.00;;;7.20;76.80;;;;;;6276199;22;19973;-93
2022/03/05 12:25:44;;;;;;;8.07;3.03;;;7.40;76.30;;;;;;6276526;22;20008;-90
2022/03/05 12:28:33;;;;;;;7.38;2.85;;;7.50;75.10;;;;;;6275938;22;20063;-90
2022/03/05 12:31:43;;;;;;;6.78;3.03;;;7.60;75.10;;;;;;6274863;22;20091;-90
2022/03/05 12:37:32;;;;;;;5.32;2.60;;;7.80;74.40;;;;;;6232441;22;20003;-91
2022/03/05 12:39:58;;;;;;;6.50;2.85;;;7.80;75.10;;;;;;6278482;22;19999;-92
2022/03/05 12:42:49;;;;;;;8.20;3.13;;;7.80;74.70;;;;;;6274568;22;20014;-90
2022/03/05 12:45:29;;;;;;;6.60;3.00;;;7.90;73.80;;;;;;6275321;22;20008;-91
2022/03/05 12:48:22;;;;;;;6.72;2.88;;;8.00;73.20;;;;;;6276606;22;20449;-90
2022/03/05 12:50:53;;;;;;;6.70;3.15;;;8.00;73.30;;;;;;6273236;22;20071;-91
2022/03/05 12:53:41;;;;;;;;;;;;;;;;;;;;;
2022/03/05 12:56:23;;;;;;;5.78;2.28;;;8.30;72.00;;;;;;6278499;22;20087;-90
2022/03/05 12:59:01;;;;;;;6.32;2.70;;;8.50;71.40;;;;;;6278948;22;20071;-91
2022/03/05 13:01:53;;;;;;;7.63;2.97;;;8.50;72.30;;;;;;6278327;22;20049;-92
2022/03/05 13:04:52;;;;;;;;;;;;;;;;;;;;;
2022/03/05 13:07:13;;;;;;;5.60;2.33;;;8.30;69.50;;;;;;6274102;22;20008;-91
2022/03/05 13:09:47;;;;;;;5.97;2.75;;;8.40;68.40;;;;;;6276190;22;20010;-91
2022/03/05 13:12:45;;;;;;;6.25;2.58;;;8.60;70.10;;;;;;6279256;22;20003;-92
2022/03/05 13:15:49;;;;;;;5.40;2.17;;;8.50;67.40;;;;;;6277270;22;20004;-92
2022/03/05 13:18:22;;;;;;;6.70;2.63;;;8.70;68.60;;;;;;6277314;22;20008;-92
2022/03/05 13:24:39;;;;;;;6.20;2.60;;;8.30;68.90;;;;;;6255263;22;20000;-90
2022/03/05 13:36:07;;;;;;;;;;;;;;;;;;;;;
2022/03/05 13:44:23;;;;;;;7.30;2.80;;;9.10;65.10;;;;;;6287801;22;20015;-90
2022/03/05 13:47:11;;;;;;;7.00;3.30;;;9.30;64.90;;;;;;6303344;22;20011;-90
2022/03/05 20:01:09;;;;;;;8.63;3.28;;;1.70;85.30;;;;;;6337143;22;20011;-90
2022/03/05 20:46:05;;;;;;;11.43;4.03;;;1.40;88.80;;;;;;6235842;22;20018;-90
2022/03/05 20:48:49;;;;;;;10.40;3.43;;;1.40;88.50;;;;;;6245609;22;20135;-89
2022/03/05 21:29:06;;;;;;;11.00;3.87;;;1.00;90.60;;;;;;6292564;22;20033;-91
2022/03/05 21:38:49;;;;;;;9.73;3.53;;;1.00;90.40;;;;;;6161297;22;20830;-91
2022/03/05 21:41:37;;;;;;;;;;;;;;;;;;;;;
2022/03/05 21:45:02;;;;;;;10.67;3.60;;;1.00;90.70;;;;;;6310194;22;20011;-91
2022/03/05 21:48:09;;;;;;;11.03;4.20;;;0.90;91.10;;;;;;6282554;22;19999;-91
2022/03/05 21:51:11;;;;;;;12.17;4.00;;;0.90;90.70;;;;;;6307893;22;19999;-90
2022/03/05 21:54:10;;;;;;;;;;;;;;;;;;;;;
2022/03/05 21:57:20;;;;;;;8.90;3.60;;;0.80;91.10;;;;;;6261195;22;20344;-91
2022/03/05 22:08:25;;;;;;;11.17;3.70;;;0.70;91.40;;;;;;6321813;22;20019;-91
2022/03/05 22:11:39;;;;;;;;;;;;;;;;;;;;;
2022/03/05 22:14:45;;;;;;;;;;;;;;;;;;;;;
2022/03/05 23:18:35;;;;;;;8.90;4.03;;;0.20;93.60;;;;;;6119844;23;20109;-91
2022/03/05 23:21:23;;;;;;;12.33;3.63;;;0.20;93.60;;;;;;6090560;23;20010;-91
2022/03/05 23:24:45;;;;;;;;;;;;;;;;;;;;;
